sensor_id;sensor_type;location;lat;lon;timestamp;P1;durP1;ratioP1;P2;durP2;ratioP2
19569;SDS011;9931;51.458;7.256;2023-11-22T00:01:34;41.35;;;3.00;;
19569;SDS011;9931;51.458;7.256;2023-11-22T00:03:59;14.45;;;1.30;;
19569;SDS011;9931;51.458;7.256;2023-11-22T00:06:25;18.23;;;1.65;;
19569;SDS011;9931;51.458;7.256;2023-11-22T00:08:52;23.30;;;1.92;;
19569;SDS011;9931;51.458;7.256;2023-11-22T00:11:17;4.60;;;0.90;;
19569;SDS011;9931;51.458;7.256;2023-11-22T00:13:42;32.55;;;2.53;;
19569;SDS011;9931;51.458;7.256;2023-11-22T00:16:07;23.88;;;1.95;;
19569;SDS011;9931;51.458;7.256;2023-11-22T00:18:34;27.10;;;2.13;;
19569;SDS011;9931;51.458;7.256;2023-11-22T00:20:59;16.27;;;1.42;;
19569;SDS011;9931;51.458;7.256;2023-11-22T00:23:24;15.90;;;1.50;;
19569;SDS011;9931;51.458;7.256;2023-11-22T00:25:54;15.85;;;1.48;;
19569;SDS011;9931;51.458;7.256;2023-11-22T00:28:19;17.45;;;1.38;;
19569;SDS011;9931;51.458;7.256;2023-11-22T00:30:44;20.48;;;1.80;;
19569;SDS011;9931;51.458;7.256;2023-11-22T00:33:10;33.30;;;2.50;;
19569;SDS011;9931;51.458;7.256;2023-11-22T00:35:35;22.38;;;1.83;;
19569;SDS011;9931;51.458;7.256;2023-11-22T00:38:01;52.13;;;3.65;;
19569;SDS011;9931;51.458;7.256;2023-11-22T00:40:26;26.45;;;2.13;;
19569;SDS011;9931;51.458;7.256;2023-11-22T00:42:52;55.83;;;3.92;;
19569;SDS011;9931;51.458;7.256;2023-11-22T00:45:17;24.33;;;1.90;;
19569;SDS011;9931;51.458;7.256;2023-11-22T00:47:43;50.00;;;3.40;;
19569;SDS011;9931;51.458;7.256;2023-11-22T00:50:08;18.90;;;1.63;;
19569;SDS011;9931;51.458;7.256;2023-11-22T00:52:34;31.38;;;2.40;;
19569;SDS011;9931;51.458;7.256;2023-11-22T00:54:59;7.68;;;0.80;;
19569;SDS011;9931;51.458;7.256;2023-11-22T00:57:25;23.50;;;1.90;;
19569;SDS011;9931;51.458;7.256;2023-11-22T00:59:51;26.67;;;2.15;;
19569;SDS011;9931;51.458;7.256;2023-11-22T01:02:17;18.98;;;1.65;;
19569;SDS011;9931;51.458;7.256;2023-11-22T01:04:42;18.73;;;1.48;;
19569;SDS011;9931;51.458;7.256;2023-11-22T01:07:08;20.08;;;1.65;;
19569;SDS011;9931;51.458;7.256;2023-11-22T01:09:33;23.80;;;1.92;;
19569;SDS011;9931;51.458;7.256;2023-11-22T01:11:59;28.17;;;2.17;;
19569;SDS011;9931;51.458;7.256;2023-11-22T01:14:24;25.08;;;2.10;;
19569;SDS011;9931;51.458;7.256;2023-11-22T01:16:51;20.25;;;1.67;;
19569;SDS011;9931;51.458;7.256;2023-11-22T01:19:16;21.15;;;1.80;;
19569;SDS011;9931;51.458;7.256;2023-11-22T01:21:41;48.55;;;3.30;;
19569;SDS011;9931;51.458;7.256;2023-11-22T01:24:07;39.28;;;2.75;;
19569;SDS011;9931;51.458;7.256;2023-11-22T01:26:32;25.20;;;2.05;;
19569;SDS011;9931;51.458;7.256;2023-11-22T01:28:57;30.88;;;2.38;;
19569;SDS011;9931;51.458;7.256;2023-11-22T01:31:23;35.22;;;2.53;;
19569;SDS011;9931;51.458;7.256;2023-11-22T01:33:49;27.17;;;2.15;;
19569;SDS011;9931;51.458;7.256;2023-11-22T01:36:14;92.55;;;5.82;;
19569;SDS011;9931;51.458;7.256;2023-11-22T01:38:40;29.52;;;2.40;;
19569;SDS011;9931;51.458;7.256;2023-11-22T01:41:05;39.90;;;2.92;;
19569;SDS011;9931;51.458;7.256;2023-11-22T01:43:31;34.22;;;2.58;;
19569;SDS011;9931;51.458;7.256;2023-11-22T01:45:56;35.70;;;2.72;;
19569;SDS011;9931;51.458;7.256;2023-11-22T01:48:21;18.90;;;1.67;;
19569;SDS011;9931;51.458;7.256;2023-11-22T01:50:46;24.17;;;2.08;;
19569;SDS011;9931;51.458;7.256;2023-11-22T01:53:13;10.52;;;1.10;;
19569;SDS011;9931;51.458;7.256;2023-11-22T01:55:39;33.00;;;2.50;;
19569;SDS011;9931;51.458;7.256;2023-11-22T01:58:04;35.58;;;2.65;;
19569;SDS011;9931;51.458;7.256;2023-11-22T02:00:36;19.58;;;1.70;;
19569;SDS011;9931;51.458;7.256;2023-11-22T02:03:06;23.25;;;1.92;;
19569;SDS011;9931;51.458;7.256;2023-11-22T02:05:32;27.23;;;2.22;;
19569;SDS011;9931;51.458;7.256;2023-11-22T02:07:58;26.52;;;2.13;;
19569;SDS011;9931;51.458;7.256;2023-11-22T02:10:23;27.13;;;2.22;;
19569;SDS011;9931;51.458;7.256;2023-11-22T02:12:49;33.40;;;2.53;;
19569;SDS011;9931;51.458;7.256;2023-11-22T02:15:14;11.07;;;1.15;;
19569;SDS011;9931;51.458;7.256;2023-11-22T02:17:39;45.60;;;3.08;;
19569;SDS011;9931;51.458;7.256;2023-11-22T02:20:04;18.35;;;1.52;;
19569;SDS011;9931;51.458;7.256;2023-11-22T02:22:33;45.67;;;3.22;;
19569;SDS011;9931;51.458;7.256;2023-11-22T02:24:59;15.20;;;1.45;;
19569;SDS011;9931;51.458;7.256;2023-11-22T02:27:25;22.08;;;1.83;;
19569;SDS011;9931;51.458;7.256;2023-11-22T02:29:50;63.78;;;4.40;;
19569;SDS011;9931;51.458;7.256;2023-11-22T02:32:15;35.28;;;2.55;;
19569;SDS011;9931;51.458;7.256;2023-11-22T02:34:40;30.23;;;2.33;;
19569;SDS011;9931;51.458;7.256;2023-11-22T02:37:05;21.58;;;1.85;;
19569;SDS011;9931;51.458;7.256;2023-11-22T02:39:35;26.67;;;2.13;;
19569;SDS011;9931;51.458;7.256;2023-11-22T02:42:05;34.83;;;2.63;;
19569;SDS011;9931;51.458;7.256;2023-11-22T02:44:30;10.55;;;1.13;;
19569;SDS011;9931;51.458;7.256;2023-11-22T02:46:55;30.67;;;2.40;;
19569;SDS011;9931;51.458;7.256;2023-11-22T02:49:22;21.10;;;1.75;;
19569;SDS011;9931;51.458;7.256;2023-11-22T02:51:48;22.73;;;1.90;;
19569;SDS011;9931;51.458;7.256;2023-11-22T02:54:13;32.38;;;2.38;;
19569;SDS011;9931;51.458;7.256;2023-11-22T02:56:39;26.83;;;2.10;;
19569;SDS011;9931;51.458;7.256;2023-11-22T02:59:04;10.07;;;1.00;;
19569;SDS011;9931;51.458;7.256;2023-11-22T03:01:29;10.48;;;1.00;;
19569;SDS011;9931;51.458;7.256;2023-11-22T03:03:54;31.48;;;2.42;;
19569;SDS011;9931;51.458;7.256;2023-11-22T03:06:19;24.17;;;1.92;;
19569;SDS011;9931;51.458;7.256;2023-11-22T03:08:45;28.15;;;2.25;;
19569;SDS011;9931;51.458;7.256;2023-11-22T03:11:10;43.05;;;3.05;;
19569;SDS011;9931;51.458;7.256;2023-11-22T03:13:36;44.97;;;3.35;;
19569;SDS011;9931;51.458;7.256;2023-11-22T03:16:01;23.55;;;1.95;;
19569;SDS011;9931;51.458;7.256;2023-11-22T03:18:28;19.48;;;1.70;;
19569;SDS011;9931;51.458;7.256;2023-11-22T03:20:53;45.90;;;3.20;;
19569;SDS011;9931;51.458;7.256;2023-11-22T03:23:19;29.42;;;2.33;;
19569;SDS011;9931;51.458;7.256;2023-11-22T03:25:44;54.53;;;3.75;;
19569;SDS011;9931;51.458;7.256;2023-11-22T03:28:10;23.30;;;1.88;;
19569;SDS011;9931;51.458;7.256;2023-11-22T03:30:35;19.17;;;1.67;;
19569;SDS011;9931;51.458;7.256;2023-11-22T03:33:00;29.10;;;2.20;;
19569;SDS011;9931;51.458;7.256;2023-11-22T03:35:25;28.00;;;2.25;;
19569;SDS011;9931;51.458;7.256;2023-11-22T03:37:50;28.10;;;2.28;;
19569;SDS011;9931;51.458;7.256;2023-11-22T03:40:16;7.10;;;0.77;;
19569;SDS011;9931;51.458;7.256;2023-11-22T03:42:41;31.27;;;2.50;;
19569;SDS011;9931;51.458;7.256;2023-11-22T03:45:06;30.38;;;2.30;;
19569;SDS011;9931;51.458;7.256;2023-11-22T03:47:32;54.80;;;3.70;;
19569;SDS011;9931;51.458;7.256;2023-11-22T03:49:58;22.58;;;1.83;;
19569;SDS011;9931;51.458;7.256;2023-11-22T03:52:23;20.38;;;1.77;;
19569;SDS011;9931;51.458;7.256;2023-11-22T03:54:48;15.45;;;1.35;;
19569;SDS011;9931;51.458;7.256;2023-11-22T03:57:14;27.63;;;2.17;;
19569;SDS011;9931;51.458;7.256;2023-11-22T03:59:40;30.23;;;2.25;;
19569;SDS011;9931;51.458;7.256;2023-11-22T04:02:05;26.13;;;2.05;;
19569;SDS011;9931;51.458;7.256;2023-11-22T04:04:30;14.43;;;1.30;;
19569;SDS011;9931;51.458;7.256;2023-11-22T04:06:56;30.65;;;2.38;;
19569;SDS011;9931;51.458;7.256;2023-11-22T04:09:21;18.60;;;1.60;;
19569;SDS011;9931;51.458;7.256;2023-11-22T04:11:50;30.13;;;2.30;;
19569;SDS011;9931;51.458;7.256;2023-11-22T04:14:15;11.20;;;1.10;;
19569;SDS011;9931;51.458;7.256;2023-11-22T04:16:40;34.28;;;2.50;;
19569;SDS011;9931;51.458;7.256;2023-11-22T04:19:06;16.25;;;1.45;;
19569;SDS011;9931;51.458;7.256;2023-11-22T04:21:31;18.55;;;1.60;;
19569;SDS011;9931;51.458;7.256;2023-11-22T04:23:56;12.40;;;1.20;;
19569;SDS011;9931;51.458;7.256;2023-11-22T04:26:21;13.05;;;1.20;;
19569;SDS011;9931;51.458;7.256;2023-11-22T04:28:47;28.13;;;2.25;;
19569;SDS011;9931;51.458;7.256;2023-11-22T04:31:12;20.65;;;1.67;;
19569;SDS011;9931;51.458;7.256;2023-11-22T04:33:37;27.77;;;2.13;;
19569;SDS011;9931;51.458;7.256;2023-11-22T04:36:03;34.65;;;2.67;;
19569;SDS011;9931;51.458;7.256;2023-11-22T04:38:28;35.92;;;2.60;;
19569;SDS011;9931;51.458;7.256;2023-11-22T04:40:53;20.25;;;1.67;;
19569;SDS011;9931;51.458;7.256;2023-11-22T04:43:18;16.02;;;1.42;;
19569;SDS011;9931;51.458;7.256;2023-11-22T04:45:44;18.60;;;1.70;;
19569;SDS011;9931;51.458;7.256;2023-11-22T04:48:10;52.13;;;3.45;;
19569;SDS011;9931;51.458;7.256;2023-11-22T04:50:35;19.42;;;1.67;;
19569;SDS011;9931;51.458;7.256;2023-11-22T04:53:01;27.55;;;2.17;;
19569;SDS011;9931;51.458;7.256;2023-11-22T04:55:29;23.25;;;1.88;;
19569;SDS011;9931;51.458;7.256;2023-11-22T04:57:54;22.20;;;1.85;;
19569;SDS011;9931;51.458;7.256;2023-11-22T05:00:20;26.05;;;2.00;;
19569;SDS011;9931;51.458;7.256;2023-11-22T05:02:47;23.60;;;1.95;;
19569;SDS011;9931;51.458;7.256;2023-11-22T05:05:13;12.95;;;1.20;;
19569;SDS011;9931;51.458;7.256;2023-11-22T05:07:38;50.60;;;3.50;;
19569;SDS011;9931;51.458;7.256;2023-11-22T05:10:04;23.30;;;1.80;;
19569;SDS011;9931;51.458;7.256;2023-11-22T05:12:30;25.73;;;2.03;;
19569;SDS011;9931;51.458;7.256;2023-11-22T05:14:55;18.02;;;1.60;;
19569;SDS011;9931;51.458;7.256;2023-11-22T05:17:21;13.32;;;1.20;;
19569;SDS011;9931;51.458;7.256;2023-11-22T05:19:46;11.77;;;1.17;;
19569;SDS011;9931;51.458;7.256;2023-11-22T05:22:11;21.27;;;1.65;;
19569;SDS011;9931;51.458;7.256;2023-11-22T05:24:36;9.98;;;1.02;;
19569;SDS011;9931;51.458;7.256;2023-11-22T05:27:06;12.85;;;1.20;;
19569;SDS011;9931;51.458;7.256;2023-11-22T05:29:31;7.63;;;0.88;;
19569;SDS011;9931;51.458;7.256;2023-11-22T05:31:56;18.30;;;1.67;;
19569;SDS011;9931;51.458;7.256;2023-11-22T05:34:22;15.30;;;1.38;;
19569;SDS011;9931;51.458;7.256;2023-11-22T05:36:47;15.13;;;1.27;;
19569;SDS011;9931;51.458;7.256;2023-11-22T05:39:13;29.33;;;2.15;;
19569;SDS011;9931;51.458;7.256;2023-11-22T05:41:39;15.10;;;1.38;;
19569;SDS011;9931;51.458;7.256;2023-11-22T05:44:04;16.23;;;1.40;;
19569;SDS011;9931;51.458;7.256;2023-11-22T05:46:29;12.43;;;1.08;;
19569;SDS011;9931;51.458;7.256;2023-11-22T05:48:55;29.42;;;2.15;;
19569;SDS011;9931;51.458;7.256;2023-11-22T05:51:20;14.98;;;1.25;;
19569;SDS011;9931;51.458;7.256;2023-11-22T05:53:46;9.80;;;0.95;;
19569;SDS011;9931;51.458;7.256;2023-11-22T05:56:11;12.80;;;1.20;;
19569;SDS011;9931;51.458;7.256;2023-11-22T05:58:37;16.73;;;1.45;;
19569;SDS011;9931;51.458;7.256;2023-11-22T06:01:03;22.80;;;1.88;;
19569;SDS011;9931;51.458;7.256;2023-11-22T06:03:28;30.30;;;2.15;;
19569;SDS011;9931;51.458;7.256;2023-11-22T06:05:54;17.75;;;1.50;;
19569;SDS011;9931;51.458;7.256;2023-11-22T06:08:19;19.83;;;1.65;;
19569;SDS011;9931;51.458;7.256;2023-11-22T06:10:45;23.05;;;1.88;;
19569;SDS011;9931;51.458;7.256;2023-11-22T06:13:10;28.17;;;2.10;;
19569;SDS011;9931;51.458;7.256;2023-11-22T06:15:37;28.70;;;2.15;;
19569;SDS011;9931;51.458;7.256;2023-11-22T06:18:02;7.15;;;0.80;;
19569;SDS011;9931;51.458;7.256;2023-11-22T06:20:27;23.65;;;1.95;;
19569;SDS011;9931;51.458;7.256;2023-11-22T06:22:53;19.17;;;1.60;;
19569;SDS011;9931;51.458;7.256;2023-11-22T06:25:18;16.52;;;1.48;;
19569;SDS011;9931;51.458;7.256;2023-11-22T06:27:43;58.53;;;3.83;;
19569;SDS011;9931;51.458;7.256;2023-11-22T06:30:08;31.17;;;2.35;;
19569;SDS011;9931;51.458;7.256;2023-11-22T06:32:36;13.35;;;1.17;;
19569;SDS011;9931;51.458;7.256;2023-11-22T06:35:02;15.00;;;1.33;;
19569;SDS011;9931;51.458;7.256;2023-11-22T06:37:28;6.88;;;0.75;;
19569;SDS011;9931;51.458;7.256;2023-11-22T06:39:53;23.13;;;1.75;;
19569;SDS011;9931;51.458;7.256;2023-11-22T06:42:18;45.85;;;3.17;;
19569;SDS011;9931;51.458;7.256;2023-11-22T06:44:47;22.27;;;1.80;;
19569;SDS011;9931;51.458;7.256;2023-11-22T06:47:17;20.50;;;1.70;;
19569;SDS011;9931;51.458;7.256;2023-11-22T06:49:43;23.25;;;1.85;;
19569;SDS011;9931;51.458;7.256;2023-11-22T06:52:08;21.67;;;1.75;;
19569;SDS011;9931;51.458;7.256;2023-11-22T06:54:34;26.33;;;2.00;;
19569;SDS011;9931;51.458;7.256;2023-11-22T06:57:00;18.98;;;1.55;;
19569;SDS011;9931;51.458;7.256;2023-11-22T06:59:25;14.10;;;1.27;;
19569;SDS011;9931;51.458;7.256;2023-11-22T07:01:50;19.08;;;1.55;;
19569;SDS011;9931;51.458;7.256;2023-11-22T07:04:16;34.30;;;2.50;;
19569;SDS011;9931;51.458;7.256;2023-11-22T07:06:41;20.77;;;1.67;;
19569;SDS011;9931;51.458;7.256;2023-11-22T07:09:09;19.65;;;1.75;;
19569;SDS011;9931;51.458;7.256;2023-11-22T07:11:38;21.75;;;1.80;;
19569;SDS011;9931;51.458;7.256;2023-11-22T07:14:04;6.85;;;0.73;;
19569;SDS011;9931;51.458;7.256;2023-11-22T07:16:29;41.72;;;2.97;;
19569;SDS011;9931;51.458;7.256;2023-11-22T07:18:54;16.42;;;1.42;;
19569;SDS011;9931;51.458;7.256;2023-11-22T07:21:20;18.23;;;1.52;;
19569;SDS011;9931;51.458;7.256;2023-11-22T07:23:45;19.55;;;1.63;;
19569;SDS011;9931;51.458;7.256;2023-11-22T07:26:11;16.25;;;1.40;;
19569;SDS011;9931;51.458;7.256;2023-11-22T07:28:39;41.80;;;2.97;;
19569;SDS011;9931;51.458;7.256;2023-11-22T07:31:06;16.33;;;1.50;;
19569;SDS011;9931;51.458;7.256;2023-11-22T07:33:32;51.63;;;3.53;;
19569;SDS011;9931;51.458;7.256;2023-11-22T07:35:57;22.08;;;1.75;;
19569;SDS011;9931;51.458;7.256;2023-11-22T07:38:23;21.10;;;1.67;;
19569;SDS011;9931;51.458;7.256;2023-11-22T07:40:49;27.05;;;2.10;;
19569;SDS011;9931;51.458;7.256;2023-11-22T07:43:15;17.05;;;1.52;;
19569;SDS011;9931;51.458;7.256;2023-11-22T07:45:41;23.70;;;1.90;;
19569;SDS011;9931;51.458;7.256;2023-11-22T07:48:06;17.13;;;1.50;;
19569;SDS011;9931;51.458;7.256;2023-11-22T07:50:31;25.38;;;1.92;;
19569;SDS011;9931;51.458;7.256;2023-11-22T07:52:56;25.80;;;1.92;;
19569;SDS011;9931;51.458;7.256;2023-11-22T07:55:21;22.42;;;1.75;;
19569;SDS011;9931;51.458;7.256;2023-11-22T07:57:49;32.47;;;2.17;;
19569;SDS011;9931;51.458;7.256;2023-11-22T08:00:16;19.30;;;1.65;;
19569;SDS011;9931;51.458;7.256;2023-11-22T08:02:44;23.90;;;1.88;;
19569;SDS011;9931;51.458;7.256;2023-11-22T08:05:09;11.02;;;0.93;;
19569;SDS011;9931;51.458;7.256;2023-11-22T08:07:38;44.75;;;3.10;;
19569;SDS011;9931;51.458;7.256;2023-11-22T08:10:05;7.82;;;0.82;;
19569;SDS011;9931;51.458;7.256;2023-11-22T08:12:35;34.65;;;2.58;;
19569;SDS011;9931;51.458;7.256;2023-11-22T08:15:00;29.52;;;2.28;;
19569;SDS011;9931;51.458;7.256;2023-11-22T08:17:27;19.02;;;1.63;;
19569;SDS011;9931;51.458;7.256;2023-11-22T08:19:52;16.58;;;1.42;;
19569;SDS011;9931;51.458;7.256;2023-11-22T08:22:17;14.95;;;1.33;;
19569;SDS011;9931;51.458;7.256;2023-11-22T08:24:43;15.43;;;1.40;;
19569;SDS011;9931;51.458;7.256;2023-11-22T08:27:09;16.92;;;1.50;;
19569;SDS011;9931;51.458;7.256;2023-11-22T08:29:34;17.83;;;1.70;;
19569;SDS011;9931;51.458;7.256;2023-11-22T08:31:59;19.20;;;1.65;;
19569;SDS011;9931;51.458;7.256;2023-11-22T08:34:25;34.30;;;2.53;;
19569;SDS011;9931;51.458;7.256;2023-11-22T08:36:50;14.07;;;1.30;;
19569;SDS011;9931;51.458;7.256;2023-11-22T08:39:15;28.58;;;2.20;;
19569;SDS011;9931;51.458;7.256;2023-11-22T08:41:41;19.83;;;1.58;;
19569;SDS011;9931;51.458;7.256;2023-11-22T08:44:06;16.88;;;1.67;;
19569;SDS011;9931;51.458;7.256;2023-11-22T08:46:31;16.77;;;1.45;;
19569;SDS011;9931;51.458;7.256;2023-11-22T08:48:57;22.38;;;1.88;;
19569;SDS011;9931;51.458;7.256;2023-11-22T08:51:22;18.58;;;1.63;;
19569;SDS011;9931;51.458;7.256;2023-11-22T08:53:48;24.08;;;2.17;;
19569;SDS011;9931;51.458;7.256;2023-11-22T08:56:13;14.98;;;1.40;;
19569;SDS011;9931;51.458;7.256;2023-11-22T08:58:40;21.08;;;1.77;;
19569;SDS011;9931;51.458;7.256;2023-11-22T09:01:06;36.50;;;2.83;;
19569;SDS011;9931;51.458;7.256;2023-11-22T09:03:33;24.83;;;2.13;;
19569;SDS011;9931;51.458;7.256;2023-11-22T09:05:59;67.97;;;4.80;;
19569;SDS011;9931;51.458;7.256;2023-11-22T09:08:25;46.40;;;3.50;;
19569;SDS011;9931;51.458;7.256;2023-11-22T09:10:50;15.30;;;1.52;;
19569;SDS011;9931;51.458;7.256;2023-11-22T09:13:16;20.15;;;1.83;;
19569;SDS011;9931;51.458;7.256;2023-11-22T09:15:41;18.95;;;1.73;;
19569;SDS011;9931;51.458;7.256;2023-11-22T09:18:09;13.52;;;1.38;;
19569;SDS011;9931;51.458;7.256;2023-11-22T09:20:34;40.10;;;3.13;;
19569;SDS011;9931;51.458;7.256;2023-11-22T09:22:59;17.10;;;1.65;;
19569;SDS011;9931;51.458;7.256;2023-11-22T09:25:25;10.75;;;1.13;;
19569;SDS011;9931;51.458;7.256;2023-11-22T09:27:51;21.08;;;1.92;;
19569;SDS011;9931;51.458;7.256;2023-11-22T09:30:20;20.95;;;1.98;;
19569;SDS011;9931;51.458;7.256;2023-11-22T09:33:04;17.55;;;1.65;;
19569;SDS011;9931;51.458;7.256;2023-11-22T09:35:30;20.42;;;1.80;;
19569;SDS011;9931;51.458;7.256;2023-11-22T09:37:59;14.98;;;1.40;;
19569;SDS011;9931;51.458;7.256;2023-11-22T09:40:25;20.70;;;1.75;;
19569;SDS011;9931;51.458;7.256;2023-11-22T09:42:52;17.23;;;1.58;;
19569;SDS011;9931;51.458;7.256;2023-11-22T09:45:17;19.02;;;1.80;;
19569;SDS011;9931;51.458;7.256;2023-11-22T09:47:46;60.40;;;4.22;;
19569;SDS011;9931;51.458;7.256;2023-11-22T09:50:14;22.13;;;1.90;;
19569;SDS011;9931;51.458;7.256;2023-11-22T09:52:42;28.48;;;2.33;;
19569;SDS011;9931;51.458;7.256;2023-11-22T09:55:08;22.58;;;1.90;;
19569;SDS011;9931;51.458;7.256;2023-11-22T09:57:34;54.58;;;3.95;;
19569;SDS011;9931;51.458;7.256;2023-11-22T10:00:02;15.32;;;1.48;;
19569;SDS011;9931;51.458;7.256;2023-11-22T10:02:27;31.48;;;2.45;;
19569;SDS011;9931;51.458;7.256;2023-11-22T10:04:53;15.43;;;1.45;;
19569;SDS011;9931;51.458;7.256;2023-11-22T10:07:19;22.52;;;1.98;;
19569;SDS011;9931;51.458;7.256;2023-11-22T10:09:44;21.63;;;1.92;;
19569;SDS011;9931;51.458;7.256;2023-11-22T10:12:11;15.30;;;1.45;;
19569;SDS011;9931;51.458;7.256;2023-11-22T10:14:36;23.13;;;1.95;;
19569;SDS011;9931;51.458;7.256;2023-11-22T10:17:03;16.40;;;1.55;;
19569;SDS011;9931;51.458;7.256;2023-11-22T10:19:30;25.88;;;2.20;;
19569;SDS011;9931;51.458;7.256;2023-11-22T10:22:05;9.40;;;1.05;;
19569;SDS011;9931;51.458;7.256;2023-11-22T10:24:34;59.00;;;4.25;;
19569;SDS011;9931;51.458;7.256;2023-11-22T10:27:00;17.45;;;1.65;;
19569;SDS011;9931;51.458;7.256;2023-11-22T10:29:26;30.02;;;2.58;;
19569;SDS011;9931;51.458;7.256;2023-11-22T10:31:51;18.38;;;1.67;;
19569;SDS011;9931;51.458;7.256;2023-11-22T10:34:21;15.27;;;1.45;;
19569;SDS011;9931;51.458;7.256;2023-11-22T10:36:46;20.50;;;1.75;;
19569;SDS011;9931;51.458;7.256;2023-11-22T10:39:12;36.60;;;2.88;;
19569;SDS011;9931;51.458;7.256;2023-11-22T10:41:41;21.90;;;1.98;;
19569;SDS011;9931;51.458;7.256;2023-11-22T10:44:06;15.48;;;1.48;;
19569;SDS011;9931;51.458;7.256;2023-11-22T10:46:33;37.53;;;2.92;;
19569;SDS011;9931;51.458;7.256;2023-11-22T10:48:58;16.67;;;1.52;;
19569;SDS011;9931;51.458;7.256;2023-11-22T10:51:23;31.25;;;2.55;;
19569;SDS011;9931;51.458;7.256;2023-11-22T10:53:51;18.02;;;1.70;;
19569;SDS011;9931;51.458;7.256;2023-11-22T10:56:19;16.35;;;1.58;;
19569;SDS011;9931;51.458;7.256;2023-11-22T10:58:47;19.50;;;1.80;;
19569;SDS011;9931;51.458;7.256;2023-11-22T11:01:13;12.48;;;1.30;;
19569;SDS011;9931;51.458;7.256;2023-11-22T11:03:41;34.15;;;2.70;;
19569;SDS011;9931;51.458;7.256;2023-11-22T11:06:13;19.35;;;1.75;;
19569;SDS011;9931;51.458;7.256;2023-11-22T11:08:40;16.40;;;1.58;;
19569;SDS011;9931;51.458;7.256;2023-11-22T11:11:06;38.58;;;2.88;;
19569;SDS011;9931;51.458;7.256;2023-11-22T11:13:32;25.30;;;2.13;;
19569;SDS011;9931;51.458;7.256;2023-11-22T11:15:57;22.17;;;1.88;;
19569;SDS011;9931;51.458;7.256;2023-11-22T11:18:23;14.82;;;1.50;;
19569;SDS011;9931;51.458;7.256;2023-11-22T11:20:49;25.00;;;2.20;;
19569;SDS011;9931;51.458;7.256;2023-11-22T11:23:18;9.50;;;1.08;;
19569;SDS011;9931;51.458;7.256;2023-11-22T11:25:44;16.92;;;1.65;;
19569;SDS011;9931;51.458;7.256;2023-11-22T11:28:10;25.80;;;2.30;;
19569;SDS011;9931;51.458;7.256;2023-11-22T11:30:43;16.98;;;1.70;;
19569;SDS011;9931;51.458;7.256;2023-11-22T11:33:09;19.23;;;1.80;;
19569;SDS011;9931;51.458;7.256;2023-11-22T11:35:37;58.35;;;4.13;;
19569;SDS011;9931;51.458;7.256;2023-11-22T11:38:03;9.88;;;1.17;;
19569;SDS011;9931;51.458;7.256;2023-11-22T11:40:31;17.85;;;1.75;;
19569;SDS011;9931;51.458;7.256;2023-11-22T11:42:57;15.93;;;1.60;;
19569;SDS011;9931;51.458;7.256;2023-11-22T11:45:22;26.27;;;2.38;;
19569;SDS011;9931;51.458;7.256;2023-11-22T11:47:47;56.57;;;4.23;;
19569;SDS011;9931;51.458;7.256;2023-11-22T11:50:12;40.53;;;3.08;;
19569;SDS011;9931;51.458;7.256;2023-11-22T11:52:38;15.48;;;1.55;;
19569;SDS011;9931;51.458;7.256;2023-11-22T11:55:04;16.88;;;1.75;;
19569;SDS011;9931;51.458;7.256;2023-11-22T11:57:30;21.92;;;2.08;;
19569;SDS011;9931;51.458;7.256;2023-11-22T11:59:56;23.35;;;2.20;;
19569;SDS011;9931;51.458;7.256;2023-11-22T12:02:21;21.27;;;2.05;;
19569;SDS011;9931;51.458;7.256;2023-11-22T12:04:46;23.73;;;2.20;;
19569;SDS011;9931;51.458;7.256;2023-11-22T12:07:12;19.40;;;1.98;;
19569;SDS011;9931;51.458;7.256;2023-11-22T12:09:37;22.40;;;2.20;;
19569;SDS011;9931;51.458;7.256;2023-11-22T12:12:03;19.70;;;1.88;;
19569;SDS011;9931;51.458;7.256;2023-11-22T12:14:28;17.48;;;1.80;;
19569;SDS011;9931;51.458;7.256;2023-11-22T12:16:53;24.45;;;2.35;;
19569;SDS011;9931;51.458;7.256;2023-11-22T12:19:23;4.28;;;1.00;;
19569;SDS011;9931;51.458;7.256;2023-11-22T12:21:48;23.73;;;2.47;;
19569;SDS011;9931;51.458;7.256;2023-11-22T12:24:14;16.83;;;1.65;;
19569;SDS011;9931;51.458;7.256;2023-11-22T12:26:44;17.85;;;1.83;;
19569;SDS011;9931;51.458;7.256;2023-11-22T12:29:09;19.92;;;2.00;;
19569;SDS011;9931;51.458;7.256;2023-11-22T12:31:43;26.48;;;2.40;;
19569;SDS011;9931;51.458;7.256;2023-11-22T12:34:08;17.85;;;6.43;;
19569;SDS011;9931;51.458;7.256;2023-11-22T12:36:33;25.92;;;10.70;;
19569;SDS011;9931;51.458;7.256;2023-11-22T12:39:00;25.95;;;7.13;;
19569;SDS011;9931;51.458;7.256;2023-11-22T12:41:28;25.73;;;7.10;;
19569;SDS011;9931;51.458;7.256;2023-11-22T12:44:03;19.77;;;8.88;;
19569;SDS011;9931;51.458;7.256;2023-11-22T12:46:34;20.77;;;9.57;;
19569;SDS011;9931;51.458;7.256;2023-11-22T12:49:09;22.65;;;10.25;;
19569;SDS011;9931;51.458;7.256;2023-11-22T12:51:36;55.63;;;9.40;;
19569;SDS011;9931;51.458;7.256;2023-11-22T12:54:01;22.23;;;6.32;;
19569;SDS011;9931;51.458;7.256;2023-11-22T12:56:26;21.27;;;6.10;;
19569;SDS011;9931;51.458;7.256;2023-11-22T12:58:53;18.55;;;5.70;;
19569;SDS011;9931;51.458;7.256;2023-11-22T13:01:18;20.30;;;7.40;;
19569;SDS011;9931;51.458;7.256;2023-11-22T13:03:45;24.20;;;6.60;;
19569;SDS011;9931;51.458;7.256;2023-11-22T13:06:10;13.18;;;6.43;;
19569;SDS011;9931;51.458;7.256;2023-11-22T13:08:35;20.70;;;1.88;;
19569;SDS011;9931;51.458;7.256;2023-11-22T13:11:01;15.27;;;1.60;;
19569;SDS011;9931;51.458;7.256;2023-11-22T13:13:26;18.83;;;1.85;;
19569;SDS011;9931;51.458;7.256;2023-11-22T13:15:52;12.77;;;1.38;;
19569;SDS011;9931;51.458;7.256;2023-11-22T13:18:18;18.33;;;1.83;;
19569;SDS011;9931;51.458;7.256;2023-11-22T13:20:44;10.70;;;1.38;;
19569;SDS011;9931;51.458;7.256;2023-11-22T13:23:10;18.52;;;1.92;;
19569;SDS011;9931;51.458;7.256;2023-11-22T13:25:35;19.75;;;2.10;;
19569;SDS011;9931;51.458;7.256;2023-11-22T13:28:00;17.42;;;1.83;;
19569;SDS011;9931;51.458;7.256;2023-11-22T13:30:26;12.18;;;1.50;;
19569;SDS011;9931;51.458;7.256;2023-11-22T13:32:52;50.92;;;3.75;;
19569;SDS011;9931;51.458;7.256;2023-11-22T13:35:18;22.85;;;2.20;;
19569;SDS011;9931;51.458;7.256;2023-11-22T13:37:44;44.83;;;3.42;;
19569;SDS011;9931;51.458;7.256;2023-11-22T13:40:17;13.70;;;1.58;;
19569;SDS011;9931;51.458;7.256;2023-11-22T13:42:43;20.27;;;2.00;;
19569;SDS011;9931;51.458;7.256;2023-11-22T13:45:09;21.13;;;2.08;;
19569;SDS011;9931;51.458;7.256;2023-11-22T13:47:34;25.52;;;2.40;;
19569;SDS011;9931;51.458;7.256;2023-11-22T13:49:59;14.63;;;1.70;;
19569;SDS011;9931;51.458;7.256;2023-11-22T13:52:25;14.05;;;1.58;;
19569;SDS011;9931;51.458;7.256;2023-11-22T13:54:50;36.42;;;3.22;;
19569;SDS011;9931;51.458;7.256;2023-11-22T13:57:16;19.08;;;1.98;;
19569;SDS011;9931;51.458;7.256;2023-11-22T13:59:42;17.17;;;1.80;;
19569;SDS011;9931;51.458;7.256;2023-11-22T14:02:07;15.65;;;1.70;;
19569;SDS011;9931;51.458;7.256;2023-11-22T14:04:32;11.18;;;1.42;;
19569;SDS011;9931;51.458;7.256;2023-11-22T14:06:59;28.15;;;2.55;;
19569;SDS011;9931;51.458;7.256;2023-11-22T14:09:25;16.45;;;1.70;;
19569;SDS011;9931;51.458;7.256;2023-11-22T14:11:50;15.80;;;1.60;;
19569;SDS011;9931;51.458;7.256;2023-11-22T14:14:15;14.98;;;1.55;;
19569;SDS011;9931;51.458;7.256;2023-11-22T14:16:40;18.25;;;1.90;;
19569;SDS011;9931;51.458;7.256;2023-11-22T14:19:09;17.98;;;1.88;;
19569;SDS011;9931;51.458;7.256;2023-11-22T14:21:35;13.77;;;1.50;;
19569;SDS011;9931;51.458;7.256;2023-11-22T14:24:00;31.42;;;2.65;;
19569;SDS011;9931;51.458;7.256;2023-11-22T14:26:25;9.23;;;1.13;;
19569;SDS011;9931;51.458;7.256;2023-11-22T14:28:51;12.90;;;1.35;;
19569;SDS011;9931;51.458;7.256;2023-11-22T14:31:17;13.02;;;1.42;;
19569;SDS011;9931;51.458;7.256;2023-11-22T14:33:42;16.30;;;1.60;;
19569;SDS011;9931;51.458;7.256;2023-11-22T14:36:07;18.83;;;1.77;;
19569;SDS011;9931;51.458;7.256;2023-11-22T14:38:33;12.48;;;1.30;;
19569;SDS011;9931;51.458;7.256;2023-11-22T14:40:58;11.13;;;1.33;;